createdAt,value
2018-09-13T00:02:02.129Z,55.90
2018-09-13T00:04:31.817Z,55.90
2018-09-13T00:07:00.428Z,55.90
2018-09-13T00:09:29.033Z,56.00
2018-09-13T00:11:57.695Z,55.60
2018-09-13T00:14:26.428Z,55.70
2018-09-13T00:16:54.964Z,56.00
2018-09-13T00:19:24.212Z,55.90
2018-09-13T00:21:52.772Z,55.30
2018-09-13T00:24:21.398Z,55.10
2018-09-13T00:26:49.983Z,54.90
2018-09-13T00:29:18.536Z,55.00
2018-09-13T00:31:47.309Z,54.90
2018-09-13T00:34:16.092Z,55.00
2018-09-13T00:36:44.727Z,55.10
2018-09-13T00:39:13.278Z,54.70
2018-09-13T00:41:41.893Z,55.10
2018-09-13T00:44:10.441Z,55.10
2018-09-13T00:46:38.981Z,55.20
2018-09-13T00:49:07.644Z,55.30
2018-09-13T00:51:36.395Z,55.30
2018-09-13T00:54:05.168Z,56.10
2018-09-13T00:56:33.728Z,55.20
2018-09-13T00:59:02.425Z,54.90
2018-09-13T01:01:30.914Z,54.90
2018-09-13T01:03:59.484Z,54.70
2018-09-13T01:06:28.066Z,54.90
2018-09-13T01:08:57.405Z,54.70
2018-09-13T01:11:26.078Z,55.00
2018-09-13T01:13:54.712Z,54.90
2018-09-13T01:16:24.059Z,54.90
2018-09-13T01:18:52.886Z,55.10
2018-09-13T01:21:21.445Z,55.00
2018-09-13T01:23:49.977Z,54.80
2018-09-13T01:26:18.636Z,54.80
2018-09-13T01:28:47.179Z,55.10
2018-09-13T01:31:15.747Z,55.60
2018-09-13T01:33:44.284Z,55.90
2018-09-13T01:36:13.199Z,56.00
2018-09-13T01:38:41.731Z,55.90
2018-09-13T01:41:10.305Z,56.40
2018-09-13T01:43:38.909Z,56.40
2018-09-13T01:46:08.428Z,56.40
2018-09-13T01:48:36.958Z,56.00
2018-09-13T01:51:05.885Z,56.10
2018-09-13T01:53:34.434Z,56.30
2018-09-13T01:56:02.991Z,56.40
2018-09-13T01:58:31.608Z,56.70
2018-09-13T02:01:00.309Z,56.90
2018-09-13T02:03:29.011Z,57.00
2018-09-13T02:05:57.776Z,57.00
2018-09-13T02:08:26.490Z,56.90
2018-09-13T02:10:55.442Z,57.10
2018-09-13T02:13:24.032Z,57.00
2018-09-13T02:15:52.615Z,56.70
2018-09-13T02:18:21.220Z,57.50
2018-09-13T02:20:49.777Z,56.80
2018-09-13T02:23:18.622Z,56.90
2018-09-13T02:25:47.175Z,56.90
2018-09-13T02:28:15.827Z,56.90
2018-09-13T02:30:44.604Z,56.90
2018-09-13T02:33:13.205Z,56.70
2018-09-13T02:35:41.781Z,56.90
2018-09-13T02:38:10.348Z,56.70
2018-09-13T02:40:38.948Z,56.60
2018-09-13T02:43:07.557Z,56.60
2018-09-13T02:45:36.189Z,56.70
2018-09-13T02:48:04.929Z,56.40
2018-09-13T02:50:34.196Z,56.80
2018-09-13T02:53:02.773Z,56.20
2018-09-13T02:55:31.497Z,56.00
2018-09-13T02:58:00.368Z,56.50
2018-09-13T03:00:29.096Z,55.60
2018-09-13T03:02:57.764Z,55.60
2018-09-13T03:05:26.291Z,55.60
2018-09-13T03:07:54.840Z,55.70
2018-09-13T03:10:23.465Z,55.60
2018-09-13T03:12:52.101Z,55.80
2018-09-13T03:15:20.904Z,55.40
2018-09-13T03:17:49.533Z,55.20
2018-09-13T03:20:18.178Z,55.30
2018-09-13T03:22:46.767Z,55.70
2018-09-13T03:25:15.503Z,55.80
2018-09-13T03:27:44.099Z,56.20
2018-09-13T03:30:13.588Z,56.40
2018-09-13T03:32:42.164Z,56.40
2018-09-13T03:35:11.004Z,56.40
2018-09-13T03:37:39.753Z,56.30
2018-09-13T03:40:08.364Z,56.40
2018-09-13T03:42:37.141Z,56.50
2018-09-13T03:45:05.823Z,56.60
2018-09-13T03:47:34.567Z,56.30
2018-09-13T03:50:03.324Z,56.70
2018-09-13T03:52:32.052Z,56.10
2018-09-13T03:55:00.609Z,56.70
2018-09-13T03:57:29.526Z,57.00
2018-09-13T03:59:58.098Z,57.00
2018-09-13T04:02:26.695Z,57.10
2018-09-13T04:04:55.237Z,56.80
2018-09-13T04:07:23.827Z,56.80
2018-09-13T04:09:52.825Z,56.90
2018-09-13T04:12:21.660Z,57.20
2018-09-13T04:14:50.216Z,58.50
2018-09-13T04:17:18.769Z,57.80
2018-09-13T04:19:48.043Z,58.10
2018-09-13T04:22:17.332Z,58.00
2018-09-13T04:24:46.396Z,58.00
2018-09-13T04:27:15.483Z,58.90
2018-09-13T04:29:45.911Z,58.60
2018-09-13T04:32:14.452Z,59.10
2018-09-13T04:34:43.278Z,59.20
2018-09-13T04:37:11.895Z,59.30
2018-09-13T04:39:40.484Z,59.60
2018-09-13T04:42:09.073Z,59.70
2018-09-13T04:44:37.648Z,59.80
2018-09-13T04:47:06.274Z,59.70
2018-09-13T04:49:34.863Z,59.80
2018-09-13T04:52:03.750Z,59.70
2018-09-13T04:54:32.327Z,60.00
2018-09-13T04:57:01.005Z,59.80
2018-09-13T04:59:29.528Z,60.00
2018-09-13T05:01:58.882Z,60.00
2018-09-13T05:04:27.521Z,60.30
2018-09-13T05:06:56.246Z,60.60
2018-09-13T05:09:24.827Z,60.20
2018-09-13T05:11:54.148Z,60.40
2018-09-13T05:14:22.714Z,61.00
2018-09-13T05:16:51.317Z,60.10
2018-09-13T05:19:19.925Z,60.60
2018-09-13T05:21:48.733Z,60.50
2018-09-13T05:24:17.304Z,60.50
2018-09-13T05:26:46.504Z,60.50
2018-09-13T05:29:15.106Z,61.10
2018-09-13T05:31:43.790Z,60.90
2018-09-13T05:34:12.339Z,60.60
2018-09-13T05:36:40.903Z,60.80
2018-09-13T05:39:12.135Z,60.00
2018-09-13T05:41:41.504Z,59.80
2018-09-13T05:44:10.115Z,60.00
2018-09-13T05:46:39.015Z,60.00
2018-09-13T05:49:08.133Z,60.20
2018-09-13T05:51:36.710Z,60.40
2018-09-13T05:54:05.445Z,60.20
2018-09-13T05:56:33.999Z,60.40
2018-09-13T05:59:02.555Z,60.30
2018-09-13T06:01:31.474Z,60.30
2018-09-13T06:04:00.295Z,60.60
2018-09-13T06:06:29.606Z,60.70
2018-09-13T06:08:58.280Z,60.80
2018-09-13T06:11:27.020Z,61.40
2018-09-13T06:13:55.622Z,61.10
2018-09-13T06:16:24.174Z,61.00
2018-09-13T06:18:52.740Z,61.10
2018-09-13T06:21:21.384Z,62.00
2018-09-13T06:23:50.109Z,61.70
2018-09-13T06:26:18.671Z,61.50
2018-09-13T06:28:47.236Z,61.50
2018-09-13T06:31:15.876Z,61.40
2018-09-13T06:33:44.558Z,61.50
2018-09-13T06:36:13.382Z,61.80
2018-09-13T06:38:41.920Z,61.90
2018-09-13T06:41:10.499Z,61.90
2018-09-13T06:43:39.094Z,61.60
2018-09-13T06:46:07.664Z,61.50
2018-09-13T06:48:36.318Z,61.30
2018-09-13T06:51:04.952Z,61.60
2018-09-13T06:53:33.803Z,61.70
2018-09-13T06:56:02.541Z,62.50
2018-09-13T06:58:31.176Z,62.10
2018-09-13T07:00:59.862Z,61.30
2018-09-13T07:03:29.056Z,61.10
2018-09-13T07:05:57.940Z,61.20
2018-09-13T07:08:26.604Z,61.30
2018-09-13T07:10:55.864Z,61.20
2018-09-13T07:13:24.889Z,60.70
2018-09-13T07:15:53.752Z,60.70
2018-09-13T07:18:22.268Z,60.70
2018-09-13T07:20:50.875Z,60.50
2018-09-13T07:23:19.552Z,60.20
2018-09-13T07:25:48.260Z,60.00
2018-09-13T07:28:17.636Z,59.50
2018-09-13T07:30:46.422Z,59.70
2018-09-13T07:33:14.990Z,59.90
2018-09-13T07:35:43.649Z,59.90
2018-09-13T07:38:12.172Z,60.00
2018-09-13T07:40:40.784Z,59.80
2018-09-13T07:43:09.397Z,60.10
2018-09-13T07:45:38.004Z,60.30
2018-09-13T07:48:06.645Z,60.30
2018-09-13T07:50:35.607Z,59.90
2018-09-13T07:53:04.469Z,60.40
2018-09-13T07:55:34.010Z,60.40
2018-09-13T07:58:04.466Z,60.70
2018-09-13T08:00:33.857Z,60.80
2018-09-13T08:03:02.605Z,61.60
2018-09-13T08:05:32.046Z,61.10
2018-09-13T08:08:00.679Z,61.10
2018-09-13T08:10:29.782Z,61.00
2018-09-13T08:12:59.111Z,60.80
2018-09-13T08:15:28.087Z,61.00
2018-09-13T08:17:57.518Z,61.10
2018-09-13T08:20:26.417Z,61.20
2018-09-13T08:22:55.620Z,60.90
2018-09-13T08:25:24.498Z,60.80
2018-09-13T08:27:53.458Z,61.00
2018-09-13T08:30:22.476Z,61.20
2018-09-13T08:32:51.312Z,61.40
2018-09-13T08:35:20.809Z,61.20
2018-09-13T08:37:50.598Z,61.30
2018-09-13T08:40:19.635Z,61.30
2018-09-13T08:42:48.477Z,61.20
2018-09-13T08:45:17.996Z,61.30
2018-09-13T08:47:47.758Z,61.00
2018-09-13T08:50:17.179Z,60.90
2018-09-13T08:52:46.360Z,60.80
2018-09-13T08:55:15.334Z,60.60
2018-09-13T08:57:44.239Z,61.00
2018-09-13T09:00:14.371Z,59.60
2018-09-13T09:02:43.991Z,59.20
2018-09-13T09:05:12.704Z,59.40
2018-09-13T09:07:41.845Z,59.60
2018-09-13T09:10:11.067Z,59.90
2018-09-13T09:12:40.123Z,59.60
2018-09-13T09:15:09.394Z,59.40
2018-09-13T09:17:38.657Z,59.50
2018-09-13T09:20:07.739Z,59.80
2018-09-13T09:22:36.574Z,60.00
2018-09-13T09:25:05.663Z,59.80
2018-09-13T09:27:34.383Z,59.70
2018-09-13T09:30:03.314Z,59.70
2018-09-13T09:32:32.162Z,60.00
2018-09-13T09:35:01.081Z,60.00
2018-09-13T09:37:30.181Z,60.50
2018-09-13T09:39:59.300Z,59.30
2018-09-13T09:42:28.027Z,59.20
2018-09-13T09:44:56.886Z,59.10
2018-09-13T09:47:25.894Z,59.00
2018-09-13T09:49:54.952Z,59.00
2018-09-13T09:52:23.867Z,58.60
2018-09-13T09:54:53.039Z,58.90
2018-09-13T09:57:21.864Z,58.60
2018-09-13T09:59:50.656Z,58.70
2018-09-13T10:02:22.925Z,59.10
2018-09-13T10:04:51.675Z,58.80
2018-09-13T10:07:21.233Z,58.70
2018-09-13T10:09:49.992Z,59.10
2018-09-13T10:12:19.380Z,59.10
2018-09-13T10:14:53.400Z,59.10
2018-09-13T10:17:27.256Z,59.40
2018-09-13T10:20:01.058Z,59.10
2018-09-13T10:22:34.966Z,58.70
2018-09-13T10:25:09.000Z,58.90
2018-09-13T10:27:43.050Z,59.00
2018-09-13T10:30:17.626Z,59.40
2018-09-13T10:32:51.490Z,59.30
2018-09-13T10:35:25.429Z,59.60
2018-09-13T10:37:59.476Z,59.70
2018-09-13T10:40:33.343Z,59.50
2018-09-13T10:43:07.213Z,59.50
2018-09-13T10:45:41.229Z,59.50
2018-09-13T10:48:15.057Z,59.40
2018-09-13T10:50:54.850Z,59.10
2018-09-13T10:53:31.982Z,58.80
2018-09-13T10:56:00.609Z,58.60
2018-09-13T10:58:30.426Z,58.70
2018-09-13T11:00:59.573Z,58.60
2018-09-13T11:03:28.897Z,58.40
2018-09-13T11:05:59.461Z,58.40
2018-09-13T11:08:28.186Z,59.20
2018-09-13T11:10:57.043Z,58.40
2018-09-13T11:13:29.687Z,58.40
2018-09-13T11:15:58.300Z,58.50
2018-09-13T11:18:26.862Z,58.20
2018-09-13T11:20:55.408Z,58.20
2018-09-13T11:23:24.127Z,58.40
2018-09-13T11:25:52.890Z,58.30
2018-09-13T11:28:21.541Z,58.20
2018-09-13T11:30:55.356Z,58.10
2018-09-13T11:33:24.169Z,58.30
2018-09-13T11:35:52.809Z,58.20
2018-09-13T11:38:21.599Z,58.30
2018-09-13T11:40:50.406Z,58.30
2018-09-13T11:43:18.775Z,58.10
2018-09-13T11:45:47.436Z,58.30
2018-09-13T11:48:16.143Z,57.90
2018-09-13T11:50:44.771Z,58.10
2018-09-13T11:53:13.556Z,58.50
2018-09-13T11:55:42.201Z,58.30
2018-09-13T11:58:12.491Z,57.80
2018-09-13T12:00:41.328Z,57.70
2018-09-13T12:03:10.236Z,57.30
2018-09-13T12:05:38.939Z,57.50
2018-09-13T12:08:07.618Z,57.60
2018-09-13T12:10:36.320Z,58.10
2018-09-13T12:13:05.055Z,56.80
2018-09-13T12:15:33.722Z,57.10
2018-09-13T12:18:02.442Z,56.60
2018-09-13T12:20:30.908Z,56.40
2018-09-13T12:22:59.540Z,56.20
2018-09-13T12:25:28.062Z,56.10
2018-09-13T12:27:56.663Z,55.80
2018-09-13T12:30:25.261Z,55.00
2018-09-13T12:32:53.902Z,55.00
2018-09-13T12:35:22.490Z,55.10
2018-09-13T12:37:51.536Z,54.90
2018-09-13T12:40:21.166Z,54.80
2018-09-13T12:42:49.745Z,55.00
2018-09-13T12:45:18.361Z,55.30
2018-09-13T12:47:47.008Z,54.70
2018-09-13T12:50:15.746Z,53.80
2018-09-13T12:52:44.508Z,53.10
2018-09-13T12:55:13.627Z,52.80
2018-09-13T12:57:42.293Z,52.20
2018-09-13T13:00:14.385Z,51.30
2018-09-13T13:02:43.868Z,51.60
2018-09-13T13:05:12.486Z,51.50
2018-09-13T13:07:41.197Z,52.00
2018-09-13T13:10:10.307Z,52.20
2018-09-13T13:12:38.930Z,52.10
2018-09-13T13:15:07.607Z,52.30
2018-09-13T13:17:36.192Z,51.90
2018-09-13T13:20:04.884Z,51.50
2018-09-13T13:22:33.493Z,51.80
2018-09-13T13:25:02.216Z,51.60
2018-09-13T13:27:30.929Z,51.30
2018-09-13T13:30:00.410Z,51.40
2018-09-13T13:32:28.992Z,51.30
2018-09-13T13:34:57.572Z,51.00
2018-09-13T13:37:26.116Z,50.90
2018-09-13T13:39:54.830Z,50.50
2018-09-13T13:42:23.486Z,50.50
2018-09-13T13:44:52.633Z,50.30
2018-09-13T13:47:21.364Z,50.90
2018-09-13T13:49:50.766Z,51.30
2018-09-13T13:52:19.422Z,50.80
2018-09-13T13:54:48.225Z,51.00
2018-09-13T13:57:17.378Z,50.60
2018-09-13T13:59:46.239Z,50.20
2018-09-13T14:02:14.936Z,50.50
2018-09-13T14:04:43.837Z,50.10
2018-09-13T14:07:12.423Z,50.10
2018-09-13T14:09:41.204Z,49.40
2018-09-13T14:12:09.948Z,49.10
2018-09-13T14:14:38.510Z,49.20
2018-09-13T14:17:07.269Z,49.40
2018-09-13T14:19:35.827Z,49.70
2018-09-13T14:22:04.453Z,49.20
2018-09-13T14:24:33.411Z,49.10
2018-09-13T14:27:02.038Z,49.50
2018-09-13T14:29:30.613Z,49.50
2018-09-13T14:31:59.977Z,49.50
2018-09-13T14:34:28.733Z,49.50
2018-09-13T14:36:57.517Z,49.20
2018-09-13T14:39:26.056Z,48.70
2018-09-13T14:41:55.025Z,48.80
2018-09-13T14:44:23.616Z,48.90
2018-09-13T14:46:52.342Z,49.00
2018-09-13T14:49:21.127Z,48.30
2018-09-13T14:51:49.768Z,48.30
2018-09-13T14:54:18.379Z,48.50
2018-09-13T14:56:46.978Z,49.10
2018-09-13T14:59:15.672Z,48.60
2018-09-13T15:01:44.371Z,48.30
2018-09-13T15:04:13.065Z,48.70
2018-09-13T15:06:41.791Z,48.40
2018-09-13T15:09:12.120Z,48.40
2018-09-13T15:11:41.439Z,48.30
2018-09-13T15:14:10.024Z,48.30
2018-09-13T15:16:38.629Z,47.80
2018-09-13T15:19:07.201Z,47.50
2018-09-13T15:21:35.843Z,47.40
2018-09-13T15:24:04.584Z,47.40
2018-09-13T15:26:33.152Z,47.60
2018-09-13T15:29:03.134Z,47.90
2018-09-13T15:31:31.740Z,47.10
2018-09-13T15:34:00.462Z,47.80
2018-09-13T15:36:30.512Z,48.10
2018-09-13T15:39:00.057Z,48.30
2018-09-13T15:41:29.448Z,48.40
2018-09-13T15:43:58.914Z,48.20
2018-09-13T15:46:28.894Z,48.00
2018-09-13T15:48:57.714Z,48.00
2018-09-13T15:51:26.984Z,47.70
2018-09-13T15:53:55.772Z,48.00
2018-09-13T15:56:24.490Z,47.60
2018-09-13T15:58:53.153Z,47.20
2018-09-13T16:01:21.757Z,47.30
2018-09-13T16:03:50.533Z,47.50
2018-09-13T16:06:19.102Z,47.90
2018-09-13T16:08:47.743Z,47.50
2018-09-13T16:11:16.962Z,47.20
2018-09-13T16:13:45.775Z,47.20
2018-09-13T16:16:14.347Z,47.30
2018-09-13T16:18:42.923Z,47.30
2018-09-13T16:21:11.584Z,47.80
2018-09-13T16:23:40.261Z,47.70
2018-09-13T16:26:08.996Z,46.80
2018-09-13T16:28:37.690Z,46.40
2018-09-13T16:31:06.335Z,46.00
2018-09-13T16:33:35.108Z,46.00
2018-09-13T16:36:03.641Z,46.00
2018-09-13T16:38:37.480Z,45.80
2018-09-13T16:41:11.404Z,46.00
2018-09-13T16:43:45.265Z,46.00
2018-09-13T16:46:19.136Z,46.00
2018-09-13T16:48:47.929Z,46.20
2018-09-13T16:51:16.652Z,46.50
2018-09-13T16:53:45.392Z,46.30
2018-09-13T16:56:14.070Z,46.20
2018-09-13T16:58:43.481Z,46.60
2018-09-13T17:01:12.098Z,46.80
2018-09-13T17:03:40.691Z,47.20
2018-09-13T17:06:09.462Z,46.80
2018-09-13T17:08:38.166Z,46.90
2018-09-13T17:11:06.832Z,46.80
2018-09-13T17:13:35.552Z,46.40
2018-09-13T17:16:04.832Z,47.10
2018-09-13T17:18:33.615Z,47.80
2018-09-13T17:21:02.512Z,47.50
2018-09-13T17:23:31.072Z,48.50
2018-09-13T17:25:59.711Z,48.70
2018-09-13T17:28:28.291Z,48.90
2018-09-13T17:30:56.948Z,49.10
2018-09-13T17:33:25.541Z,49.30
2018-09-13T17:35:54.318Z,49.30
2018-09-13T17:38:23.276Z,49.00
2018-09-13T17:40:51.841Z,49.20
2018-09-13T17:43:20.445Z,49.20
2018-09-13T17:45:50.008Z,49.40
2018-09-13T17:48:18.716Z,50.00
2018-09-13T17:50:47.403Z,49.50
2018-09-13T17:53:15.998Z,49.60
2018-09-13T17:55:44.593Z,49.90
2018-09-13T17:58:13.198Z,50.90
2018-09-13T18:00:41.851Z,50.50
2018-09-13T18:03:10.515Z,50.50
2018-09-13T18:05:39.135Z,51.10
2018-09-13T18:08:08.484Z,51.20
2018-09-13T18:10:37.998Z,51.20
2018-09-13T18:13:06.968Z,51.20
2018-09-13T18:15:35.693Z,51.40
2018-09-13T18:18:05.583Z,51.40
2018-09-13T18:20:34.375Z,51.20
2018-09-13T18:23:07.419Z,51.40
2018-09-13T18:25:37.165Z,51.00
2018-09-13T18:28:08.186Z,51.30
2018-09-13T18:30:36.909Z,51.50
2018-09-13T18:33:05.810Z,51.60
2018-09-13T18:35:34.574Z,51.30
2018-09-13T18:38:03.164Z,51.30
2018-09-13T18:40:31.873Z,51.10
2018-09-13T18:43:00.651Z,51.30
2018-09-13T18:45:29.516Z,51.20
2018-09-13T18:47:58.423Z,51.10
2018-09-13T18:50:27.515Z,51.20
2018-09-13T18:52:56.272Z,51.40
2018-09-13T18:55:24.844Z,51.40
2018-09-13T18:57:53.479Z,51.60
2018-09-13T19:00:22.235Z,51.40
2018-09-13T19:02:50.905Z,51.90
2018-09-13T19:05:19.627Z,51.70
2018-09-13T19:07:48.222Z,51.70
2018-09-13T19:10:16.839Z,51.70
2018-09-13T19:12:45.444Z,51.70
2018-09-13T19:15:14.093Z,51.90
2018-09-13T19:17:42.780Z,51.80
2018-09-13T19:20:11.357Z,51.80
2018-09-13T19:22:40.118Z,51.90
2018-09-13T19:25:08.873Z,52.10
2018-09-13T19:27:37.601Z,51.90
2018-09-13T19:30:06.718Z,52.80
2018-09-13T19:32:35.341Z,52.00
2018-09-13T19:35:03.952Z,52.00
2018-09-13T19:37:32.603Z,52.10
2018-09-13T19:40:01.404Z,52.10
2018-09-13T19:42:30.112Z,52.00
2018-09-13T19:44:58.748Z,52.00
2018-09-13T19:47:27.426Z,52.20
2018-09-13T19:49:56.319Z,52.20
2018-09-13T19:52:25.084Z,52.10
2018-09-13T19:54:54.320Z,52.20
2018-09-13T19:57:22.908Z,52.30
2018-09-13T19:59:51.619Z,52.30
2018-09-13T20:02:20.504Z,52.20
2018-09-13T20:04:49.160Z,52.20
2018-09-13T20:07:19.141Z,52.30
2018-09-13T20:09:47.893Z,52.10
2018-09-13T20:12:16.752Z,52.30
2018-09-13T20:14:45.384Z,52.20
2018-09-13T20:17:14.500Z,52.50
2018-09-13T20:19:43.147Z,52.50
2018-09-13T20:22:12.602Z,52.30
2018-09-13T20:24:41.305Z,52.20
2018-09-13T20:27:09.875Z,52.20
2018-09-13T20:29:38.551Z,52.00
2018-09-13T20:32:07.344Z,52.00
2018-09-13T20:34:35.915Z,52.10
2018-09-13T20:37:04.511Z,52.30
2018-09-13T20:39:33.122Z,52.20
2018-09-13T20:42:01.779Z,52.40
2018-09-13T20:44:30.312Z,52.50
2018-09-13T20:46:59.652Z,52.40
2018-09-13T20:49:28.366Z,52.80
2018-09-13T20:51:57.062Z,52.50
2018-09-13T20:54:25.861Z,52.80
2018-09-13T20:56:54.456Z,52.60
2018-09-13T20:59:23.051Z,52.80
2018-09-13T21:01:52.486Z,52.70
2018-09-13T21:04:21.160Z,52.90
2018-09-13T21:06:50.641Z,52.90
2018-09-13T21:09:19.377Z,52.60
2018-09-13T21:11:47.959Z,52.80
2018-09-13T21:14:16.564Z,52.70
2018-09-13T21:16:45.252Z,52.80
2018-09-13T21:19:13.832Z,52.90
2018-09-13T21:21:42.468Z,52.80
2018-09-13T21:24:11.178Z,53.20
2018-09-13T21:26:39.714Z,52.90
2018-09-13T21:29:08.967Z,53.10
2018-09-13T21:31:37.571Z,53.20
2018-09-13T21:34:06.297Z,53.40
2018-09-13T21:36:34.948Z,53.10
2018-09-13T21:39:04.004Z,53.20
2018-09-13T21:41:32.592Z,53.00
2018-09-13T21:44:01.190Z,53.30
2018-09-13T21:46:29.809Z,53.30
2018-09-13T21:48:58.400Z,53.60
2018-09-13T21:51:27.068Z,53.40
2018-09-13T21:53:55.786Z,53.40
2018-09-13T21:56:25.184Z,53.30
2018-09-13T21:58:53.862Z,53.40
2018-09-13T22:01:22.485Z,53.30
2018-09-13T22:03:51.240Z,53.40
2018-09-13T22:06:19.860Z,53.40
2018-09-13T22:08:48.464Z,53.50
2018-09-13T22:11:17.333Z,53.50
2018-09-13T22:13:46.037Z,53.90
2018-09-13T22:16:15.234Z,53.20
2018-09-13T22:18:43.827Z,53.10
2018-09-13T22:21:12.438Z,53.40
2018-09-13T22:23:41.032Z,54.00
2018-09-13T22:26:09.705Z,54.30
2018-09-13T22:28:38.321Z,54.10
2018-09-13T22:31:07.053Z,54.50
2018-09-13T22:33:35.632Z,53.90
2018-09-13T22:36:04.279Z,53.80
2018-09-13T22:38:32.875Z,53.70
2018-09-13T22:41:01.400Z,53.70
2018-09-13T22:44:01.896Z,53.60
2018-09-13T22:46:30.581Z,53.70
2018-09-13T22:48:59.262Z,53.70
2018-09-13T22:51:27.828Z,53.90
2018-09-13T22:53:56.514Z,53.80
2018-09-13T22:56:25.128Z,53.80
2018-09-13T22:58:53.736Z,53.80
2018-09-13T23:01:22.406Z,53.60
2018-09-13T23:03:50.997Z,53.50
2018-09-13T23:06:19.565Z,53.70
2018-09-13T23:08:48.164Z,53.90
2018-09-13T23:11:16.720Z,53.90
2018-09-13T23:13:45.199Z,54.00
2018-09-13T23:16:13.985Z,53.80
2018-09-13T23:18:42.578Z,53.90
2018-09-13T23:21:11.259Z,54.10
2018-09-13T23:23:39.902Z,54.20
2018-09-13T23:26:08.457Z,54.10
2018-09-13T23:28:37.219Z,54.00
2018-09-13T23:31:05.846Z,54.00
2018-09-13T23:33:34.436Z,53.70
2018-09-13T23:36:03.078Z,54.10
2018-09-13T23:38:31.735Z,53.90
2018-09-13T23:41:00.322Z,54.00
2018-09-13T23:43:29.117Z,54.20
2018-09-13T23:45:57.719Z,54.20
2018-09-13T23:48:26.295Z,53.90
2018-09-13T23:50:54.876Z,54.10
2018-09-13T23:53:23.676Z,53.90
2018-09-13T23:55:52.263Z,54.00
2018-09-13T23:58:20.847Z,53.90
